MST,Max TemperatureF,Mean TemperatureF,Min TemperatureF,Max Dew PointF,MeanDew PointF,Min DewpointF,Max Humidity, Mean Humidity, Min Humidity, Max Sea Level PressureIn, Mean Sea Level PressureIn, Min Sea Level PressureIn, Max VisibilityMiles, Mean VisibilityMiles, Min VisibilityMiles, Max Wind SpeedMPH, Mean Wind SpeedMPH, Max Gust SpeedMPH,PrecipitationIn, CloudCover, Events, WindDirDegrees
2013-1-1,20,12,4,13,6,3,92,77,61,30.37,30.18,30.03,10,5,0,16,9,18,T,5,Fog-Snow,257
2013-1-2,29,22,15,18,14,9,84,69,53,30.40,30.23,30.09,10,6,1,23,15,28,T,7,Snow,304
2013-1-3,25,15,5,12,6,-1,96,73,49,30.48,30.41,30.33,10,10,10,20,11,24,0.00,1,,259
2013-1-4,33,22,12,16,7,0,68,54,47,30.35,30.24,30.12,10,10,10,18,13,,0.00,0,,258
2013-1-5,37,25,12,21,12,5,70,59,48,30.44,30.30,30.11,10,10,10,23,14,26,0.00,0,,301
2013-1-6,41,27,12,22,14,5,74,59,44,30.36,30.17,29.95,10,10,10,20,12,23,0.00,0,,221
2013-1-7,44,35,26,19,13,9,63,44,24,30.07,29.97,29.82,10,10,10,22,10,24,0.00,0,,232
2013-1-8,48,36,23,25,19,11,69,54,39,30.27,30.02,29.79,10,10,10,18,12,24,0.00,0,,308
2013-1-9,48,37,25,26,22,18,74,57,39,30.39,30.24,30.06,10,10,10,23,13,32,0.00,0,,193
2013-1-10,48,40,32,39,30,18,92,68,44,30.03,29.70,29.42,10,10,10,29,18,38,0.00,0,,181
2013-1-11,46,24,2,30,17,-2,92,66,39,29.99,29.47,29.25,10,5,0,37,19,44,T,6,Fog-Snow,335
2013-1-12,13,5,-3,2,-2,-7,91,76,61,30.28,30.16,29.99,10,10,10,23,9,28,0.00,0,,328
2013-1-13,12,5,-2,3,-2,-7,83,75,61,30.40,30.33,30.25,10,10,10,9,7,,0.00,1,,284
2013-1-14,15,7,-2,7,3,-5,88,78,67,30.43,30.25,30.05,10,6,1,13,4,14,T,7,Snow,165
2013-1-15,27,12,-3,19,7,-7,87,69,50,30.38,30.25,30.03,10,8,2,18,11,22,T,5,Snow,268
2013-1-16,47,36,25,27,20,16,69,54,38,30.42,30.27,30.17,10,10,10,23,15,28,0.00,2,,305
2013-1-17,49,35,21,22,18,15,77,54,31,30.56,30.40,30.20,10,10,10,21,12,25,0.00,0,,239
2013-1-18,57,43,28,20,17,11,69,42,15,30.19,30.11,30.02,10,10,10,21,15,24,0.00,0,,257
2013-1-19,55,39,23,15,12,7,53,34,14,30.26,30.17,30.04,10,10,10,21,11,28,0.00,0,,1
2013-1-20,44,31,18,19,16,13,84,57,30,30.42,30.29,30.14,10,10,10,30,12,35,0.00,0,,86
2013-1-21,52,34,16,22,18,14,84,55,26,30.32,30.21,30.08,10,10,10,23,11,28,0.00,0,,214
2013-1-22,57,41,25,16,8,-1,68,39,10,30.18,30.11,30.02,10,10,10,16,9,18,0.00,0,,235
2013-1-23,59,42,24,21,9,-5,75,42,8,30.25,30.15,30.08,10,10,10,21,11,25,0.00,0,,180
2013-1-24,61,41,20,27,19,12,92,54,16,30.17,30.08,29.93,10,10,10,20,11,28,0.00,1,,262
2013-1-25,56,43,29,27,24,20,70,51,32,30.20,30.12,30.06,10,10,10,18,10,23,0.00,0,,176
2013-1-26,57,43,29,35,27,21,72,51,30,30.04,29.91,29.71,10,10,10,16,8,21,T,3,Rain,228
2013-1-27,54,43,32,40,35,31,100,75,50,29.76,29.71,29.65,10,7,0,15,8,21,T,2,Fog,272
2013-1-28,50,38,26,34,28,23,92,69,46,29.75,29.67,29.51,10,6,1,30,13,36,0.03,6,Snow,353
2013-1-29,28,20,12,25,17,10,92,75,58,30.02,29.81,29.69,10,8,1,23,12,28,T,5,Snow,336
2013-1-30,31,18,4,23,13,1,83,69,55,30.08,29.98,29.88,10,10,6,24,15,31,T,5,Snow,281
2013-1-31,32,27,21,21,18,15,81,70,58,30.28,30.15,29.94,10,10,2,22,9,25,T,4,Snow,327